Time;durP1;ratioP1;P1;durP2;ratioP2;P2;SDS_P1;SDS_P2;PMS_P1;PMS_P2;Temp;Humidity;BMP_temperature;BMP_pressure;BME280_temperature;BME280_humidity;BME280_pressure;Samples;Min_cycle;Max_cycle;Signal;HPM_P1;HPM_P2
2022/08/05 00:01:13;;;;;;;3.23;2.93;;;;;;;;;;5089341;28;20191;-53
2022/08/05 00:03:39;;;;;;;2.90;2.70;;;;;;;;;;5091236;28;20183;-53
2022/08/05 00:06:05;;;;;;;3.93;3.10;;;;;;;;;;5090757;28;20914;-54
2022/08/05 00:08:31;;;;;;;3.38;3.08;;;;;;;;;;5098177;28;20214;-53
2022/08/05 00:10:58;;;;;;;2.95;2.75;;;;;;;;;;5106659;28;20480;-53
2022/08/05 00:13:24;;;;;;;2.83;2.63;;;;;;;;;;5084628;28;20203;-54
2022/08/05 00:15:50;;;;;;;3.20;2.90;;;;;;;;;;5094063;28;20179;-54
2022/08/05 00:18:16;;;;;;;3.30;3.00;;;;;;;;;;5096161;28;20263;-54
2022/08/05 00:20:43;;;;;;;3.70;3.40;;;;;;;;;;5070587;28;20283;-54
2022/08/05 00:23:09;;;;;;;4.60;3.23;;;;;;;;;;5067098;28;20190;-55
2022/08/05 00:25:35;;;;;;;3.40;3.20;;;;;;;;;;5089362;28;20178;-56
2022/08/05 00:28:01;;;;;;;3.30;2.93;;;;;;;;;;5068252;28;20222;-54
2022/08/05 00:30:27;;;;;;;3.80;3.27;;;;;;;;;;5085144;28;20247;-54
2022/08/05 00:32:53;;;;;;;4.10;2.90;;;;;;;;;;5083527;28;20247;-55
2022/08/05 00:35:20;;;;;;;4.30;3.33;;;;;;;;;;5088934;28;20459;-54
2022/08/05 00:37:46;;;;;;;3.37;3.00;;;;;;;;;;5058288;28;20181;-55
2022/08/05 00:40:12;;;;;;;3.23;2.83;;;;;;;;;;5083181;28;20185;-54
2022/08/05 00:42:39;;;;;;;3.40;3.10;;;;;;;;;;5081975;28;20263;-54
2022/08/05 00:45:06;;;;;;;3.93;3.33;;;;;;;;;;5086930;28;20220;-55
2022/08/05 00:47:32;;;;;;;3.90;3.50;;;;;;;;;;5072958;28;20217;-54
2022/08/05 00:49:59;;;;;;;3.30;3.00;;;;;;;;;;5087344;28;20266;-54
2022/08/05 00:52:25;;;;;;;3.70;3.40;;;;;;;;;;5085759;28;20191;-54
2022/08/05 00:54:51;;;;;;;3.23;2.90;;;;;;;;;;5088303;28;20753;-54
2022/08/05 00:57:17;;;;;;;5.50;3.37;;;;;;;;;;5087859;28;20201;-54
2022/08/05 00:59:44;;;;;;;4.73;3.33;;;;;;;;;;5086368;28;20610;-54
2022/08/05 01:02:10;;;;;;;3.90;3.43;;;;;;;;;;5085767;28;20198;-54
2022/08/05 01:04:36;;;;;;;4.37;3.40;;;;;;;;;;5086863;28;20186;-55
2022/08/05 01:07:02;;;;;;;3.57;3.27;;;;;;;;;;5086074;28;20678;-55
2022/08/05 01:09:28;;;;;;;4.23;3.60;;;;;;;;;;5089456;28;20254;-54
2022/08/05 01:12:00;;;;;;;3.40;3.10;;;;;;;;;;5084842;28;20179;-55
2022/08/05 01:14:26;;;;;;;4.13;3.73;;;;;;;;;;5063213;28;20676;-55
2022/08/05 01:17:12;;;;;;;3.43;3.13;;;;;;;;;;5070379;28;20215;-54
2022/08/05 01:19:39;;;;;;;7.13;3.83;;;;;;;;;;5085240;28;20248;-54
2022/08/05 01:22:17;;;;;;;4.03;3.40;;;;;;;;;;5084499;28;20643;-55
2022/08/05 01:24:49;;;;;;;3.93;3.53;;;;;;;;;;5086163;28;20615;-54
2022/08/05 01:27:15;;;;;;;4.67;3.63;;;;;;;;;;5099552;28;20250;-55
2022/08/05 01:29:45;;;;;;;3.53;3.23;;;;;;;;;;5067136;28;20650;-55
2022/08/05 01:32:15;;;;;;;4.73;3.87;;;;;;;;;;5067928;28;20161;-55
2022/08/05 01:34:45;;;;;;;3.70;3.23;;;;;;;;;;5087988;27;20224;-55
2022/08/05 01:37:19;;;;;;;3.27;3.07;;;;;;;;;;5082968;28;20695;-54
2022/08/05 01:39:46;;;;;;;3.80;3.50;;;;;;;;;;5085863;28;20194;-56
2022/08/05 01:42:14;;;;;;;3.90;3.47;;;;;;;;;;5066242;28;20190;-54
2022/08/05 01:44:40;;;;;;;3.37;3.07;;;;;;;;;;5064917;28;21285;-56
2022/08/05 01:47:07;;;;;;;4.67;3.90;;;;;;;;;;5095259;28;20713;-55
2022/08/05 01:49:35;;;;;;;3.47;3.17;;;;;;;;;;5084873;28;20174;-55
2022/08/05 01:52:02;;;;;;;3.53;3.00;;;;;;;;;;5084154;28;20218;-54
2022/08/05 01:54:41;;;;;;;3.77;3.27;;;;;;;;;;5085806;28;20176;-54
2022/08/05 01:57:09;;;;;;;5.33;3.63;;;;;;;;;;5066358;28;20267;-55
2022/08/05 01:59:36;;;;;;;3.40;3.20;;;;;;;;;;5083504;28;20646;-56
2022/08/05 02:02:03;;;;;;;3.97;3.63;;;;;;;;;;5086909;28;20175;-55
2022/08/05 02:04:33;;;;;;;3.60;3.30;;;;;;;;;;5068054;28;20597;-55
2022/08/05 02:06:59;;;;;;;3.83;3.40;;;;;;;;;;5085120;28;20249;-55
2022/08/05 02:09:26;;;;;;;4.10;3.37;;;;;;;;;;5076674;28;20184;-54
2022/08/05 02:12:01;;;;;;;4.00;3.73;;;;;;;;;;5098849;28;20185;-55
2022/08/05 02:14:28;;;;;;;4.13;3.43;;;;;;;;;;5084595;28;20209;-55
2022/08/05 02:16:55;;;;;;;4.37;3.20;;;;;;;;;;5099474;28;20654;-54
2022/08/05 02:19:21;;;;;;;4.40;4.00;;;;;;;;;;5088415;28;20229;-55
2022/08/05 02:21:51;;;;;;;3.93;3.43;;;;;;;;;;5090276;28;20415;-53
2022/08/05 02:24:18;;;;;;;4.17;3.77;;;;;;;;;;5066922;28;20261;-53
2022/08/05 02:26:50;;;;;;;7.63;3.13;;;;;;;;;;5088773;28;20227;-54
2022/08/05 02:29:18;;;;;;;3.80;3.40;;;;;;;;;;5094410;28;20179;-54
2022/08/05 02:31:45;;;;;;;3.73;3.30;;;;;;;;;;5102832;28;20175;-55
2022/08/05 02:34:15;;;;;;;4.30;3.50;;;;;;;;;;5049137;27;20203;-54
2022/08/05 02:37:01;;;;;;;4.20;3.67;;;;;;;;;;5062721;28;20724;-55
2022/08/05 02:39:29;;;;;;;4.63;3.73;;;;;;;;;;5095442;28;20188;-55
2022/08/05 02:41:57;;;;;;;5.33;2.93;;;;;;;;;;5086565;28;20588;-54
2022/08/05 02:44:24;;;;;;;4.10;3.70;;;;;;;;;;5089783;28;20177;-55
2022/08/05 02:46:51;;;;;;;4.97;3.57;;;;;;;;;;5085052;28;20742;-54
2022/08/05 02:49:17;;;;;;;5.03;3.80;;;;;;;;;;5089460;28;20227;-54
2022/08/05 02:51:44;;;;;;;4.80;3.60;;;;;;;;;;5089769;28;20369;-54
2022/08/05 02:54:11;;;;;;;5.10;3.60;;;;;;;;;;5089809;28;20173;-54
2022/08/05 02:56:37;;;;;;;4.20;3.80;;;;;;;;;;5069497;28;20487;-53
2022/08/05 02:59:07;;;;;;;5.73;3.90;;;;;;;;;;5090934;28;20436;-54
2022/08/05 03:01:34;;;;;;;5.23;3.73;;;;;;;;;;5088826;28;20182;-55
2022/08/05 03:04:02;;;;;;;4.17;3.73;;;;;;;;;;5092748;28;20260;-54
2022/08/05 03:06:28;;;;;;;4.20;3.80;;;;;;;;;;5090496;28;20798;-54
2022/08/05 03:08:54;;;;;;;4.07;3.67;;;;;;;;;;5085159;28;20471;-54
2022/08/05 03:11:22;;;;;;;4.40;4.00;;;;;;;;;;5087494;28;20193;-54
2022/08/05 03:13:48;;;;;;;3.93;3.20;;;;;;;;;;5082504;28;20190;-54
2022/08/05 03:16:14;;;;;;;4.83;4.53;;;;;;;;;;5093873;28;20192;-54
2022/08/05 03:18:40;;;;;;;4.43;3.60;;;;;;;;;;5093847;28;20684;-53
2022/08/05 03:21:07;;;;;;;3.80;3.50;;;;;;;;;;5072013;28;20588;-53
2022/08/05 03:23:33;;;;;;;4.17;3.47;;;;;;;;;;5088284;28;20177;-54
2022/08/05 03:26:00;;;;;;;4.33;4.03;;;;;;;;;;5054874;28;20671;-53
2022/08/05 03:28:26;;;;;;;4.33;3.53;;;;;;;;;;5084151;28;20182;-53
2022/08/05 03:30:53;;;;;;;4.07;3.37;;;;;;;;;;5089356;28;20301;-53
2022/08/05 03:33:20;;;;;;;7.43;6.93;;;;;;;;;;5079613;28;20247;-54
2022/08/05 03:35:47;;;;;;;3.70;3.23;;;;;;;;;;5093347;28;20715;-52
2022/08/05 03:38:13;;;;;;;4.27;3.63;;;;;;;;;;5098441;28;20194;-52
2022/08/05 03:40:44;;;;;;;4.27;3.80;;;;;;;;;;5071404;28;20686;-54
2022/08/05 03:43:10;;;;;;;4.20;3.80;;;;;;;;;;5089552;28;20228;-54
2022/08/05 03:45:36;;;;;;;3.93;3.60;;;;;;;;;;5090906;28;20637;-53
2022/08/05 03:48:03;;;;;;;4.17;3.43;;;;;;;;;;5098998;28;20622;-53
2022/08/05 03:50:35;;;;;;;3.83;3.37;;;;;;;;;;5090670;28;20524;-54
2022/08/05 03:53:05;;;;;;;4.37;3.80;;;;;;;;;;5090176;28;20178;-54
2022/08/05 03:55:33;;;;;;;4.47;4.07;;;;;;;;;;5088601;28;20182;-53
2022/08/05 03:58:09;;;;;;;4.50;4.10;;;;;;;;;;5095871;28;20647;-54
2022/08/05 04:00:39;;;;;;;3.47;3.17;;;;;;;;;;5089161;28;20543;-53
2022/08/05 04:03:06;;;;;;;5.17;4.77;;;;;;;;;;5083925;28;20167;-54
2022/08/05 04:05:35;;;;;;;4.57;3.83;;;;;;;;;;5089081;28;20170;-54
2022/08/05 04:08:03;;;;;;;3.50;3.17;;;;;;;;;;5084357;28;20629;-54
2022/08/05 04:10:29;;;;;;;3.60;3.13;;;;;;;;;;5088450;28;20187;-54
2022/08/05 04:12:56;;;;;;;3.97;3.40;;;;;;;;;;5081194;28;20532;-54
2022/08/05 04:15:22;;;;;;;4.63;3.83;;;;;;;;;;5056543;28;20200;-54
2022/08/05 04:17:49;;;;;;;3.93;3.47;;;;;;;;;;5064851;28;20393;-55
2022/08/05 04:20:23;;;;;;;4.93;3.63;;;;;;;;;;5096382;28;20239;-54
2022/08/05 04:22:56;;;;;;;4.87;3.70;;;;;;;;;;5083430;28;20195;-54
2022/08/05 04:25:23;;;;;;;6.70;6.20;;;;;;;;;;5093162;28;20184;-54
2022/08/05 04:27:49;;;;;;;4.33;3.93;;;;;;;;;;5079405;28;20208;-54
2022/08/05 04:30:15;;;;;;;4.57;4.17;;;;;;;;;;5085661;28;20646;-54
2022/08/05 04:32:41;;;;;;;3.97;3.70;;;;;;;;;;5084519;28;20180;-55
2022/08/05 04:35:08;;;;;;;5.40;3.57;;;;;;;;;;5083139;28;20616;-53
2022/08/05 04:37:34;;;;;;;4.63;4.17;;;;;;;;;;5063569;28;20181;-53
2022/08/05 04:40:00;;;;;;;5.53;4.93;;;;;;;;;;5077412;28;20559;-55
2022/08/05 04:42:26;;;;;;;4.37;3.97;;;;;;;;;;5076766;28;20184;-53
2022/08/05 04:44:52;;;;;;;5.60;4.23;;;;;;;;;;5082239;28;20188;-52
2022/08/05 04:47:18;;;;;;;4.13;3.80;;;;;;;;;;5083044;28;20303;-53
2022/08/05 04:49:45;;;;;;;3.90;3.60;;;;;;;;;;5085055;28;20188;-53
2022/08/05 04:52:11;;;;;;;7.07;6.53;;;;;;;;;;5081878;28;20180;-53
2022/08/05 04:54:38;;;;;;;4.67;4.37;;;;;;;;;;5061029;28;20485;-53
2022/08/05 04:57:04;;;;;;;5.03;4.60;;;;;;;;;;5080971;28;20262;-53
2022/08/05 04:59:30;;;;;;;5.07;4.53;;;;;;;;;;5076761;28;20192;-55
2022/08/05 05:01:57;;;;;;;6.53;4.93;;;;;;;;;;5087329;28;20176;-53
2022/08/05 05:04:23;;;;;;;4.83;4.43;;;;;;;;;;5070001;28;20180;-52
2022/08/05 05:06:50;;;;;;;5.13;4.63;;;;;;;;;;5084671;28;20253;-52
2022/08/05 05:09:16;;;;;;;5.90;4.77;;;;;;;;;;5082674;28;20188;-53
2022/08/05 05:11:42;;;;;;;6.13;5.63;;;;;;;;;;5086681;28;20176;-54
2022/08/05 05:14:08;;;;;;;4.97;4.47;;;;;;;;;;5065872;28;20651;-53
2022/08/05 05:16:40;;;;;;;6.47;5.87;;;;;;;;;;5073246;28;20273;-53
2022/08/05 05:19:09;;;;;;;6.30;4.90;;;;;;;;;;5059752;28;20270;-52
2022/08/05 05:21:35;;;;;;;7.73;4.60;;;;;;;;;;5087383;28;20211;-53
2022/08/05 05:24:01;;;;;;;5.10;4.60;;;;;;;;;;5085794;28;20223;-53
2022/08/05 05:26:38;;;;;;;5.63;5.13;;;;;;;;;;5083672;28;20752;-53
2022/08/05 05:29:04;;;;;;;5.17;4.67;;;;;;;;;;5072262;28;20186;-53
2022/08/05 05:31:30;;;;;;;4.70;4.30;;;;;;;;;;5091083;28;20266;-54
2022/08/05 05:33:56;;;;;;;5.43;4.93;;;;;;;;;;5086036;28;20172;-54
2022/08/05 05:36:29;;;;;;;6.43;4.43;;;;;;;;;;5070207;28;20249;-54
2022/08/05 05:38:55;;;;;;;6.03;4.60;;;;;;;;;;5056770;28;20178;-53
2022/08/05 05:41:22;;;;;;;5.20;4.70;;;;;;;;;;5083060;28;20269;-54
2022/08/05 05:43:48;;;;;;;5.07;4.60;;;;;;;;;;5089992;28;20190;-55
2022/08/05 05:46:14;;;;;;;5.10;4.63;;;;;;;;;;5087573;28;20192;-53
2022/08/05 05:48:40;;;;;;;5.27;4.77;;;;;;;;;;5084762;28;20177;-54
2022/08/05 05:51:07;;;;;;;4.80;4.50;;;;;;;;;;5086906;28;20180;-54
2022/08/05 05:53:33;;;;;;;4.90;4.50;;;;;;;;;;5087448;28;20161;-54
2022/08/05 05:56:00;;;;;;;6.27;4.97;;;;;;;;;;5087040;28;20172;-53
2022/08/05 05:58:26;;;;;;;7.37;5.27;;;;;;;;;;5068871;28;20772;-54
2022/08/05 06:00:54;;;;;;;5.40;4.90;;;;;;;;;;5087420;28;20179;-54
2022/08/05 06:03:20;;;;;;;7.10;4.70;;;;;;;;;;5077021;28;20489;-54
2022/08/05 06:05:47;;;;;;;5.67;5.10;;;;;;;;;;5087115;28;20497;-54
2022/08/05 06:08:13;;;;;;;5.37;4.90;;;;;;;;;;5077574;28;20168;-54
2022/08/05 06:10:39;;;;;;;8.53;5.20;;;;;;;;;;5069066;28;20652;-54
2022/08/05 06:13:05;;;;;;;5.70;4.80;;;;;;;;;;5067973;28;20179;-54
2022/08/05 06:15:31;;;;;;;7.13;4.67;;;;;;;;;;5084014;28;20184;-54
2022/08/05 06:17:57;;;;;;;6.93;5.93;;;;;;;;;;5062666;28;20645;-53
2022/08/05 06:20:23;;;;;;;5.77;5.27;;;;;;;;;;5063948;28;20548;-53
2022/08/05 06:22:50;;;;;;;6.63;5.97;;;;;;;;;;5080326;28;20203;-54
2022/08/05 06:25:16;;;;;;;6.73;6.13;;;;;;;;;;5093814;28;20298;-54
2022/08/05 06:27:42;;;;;;;8.70;7.17;;;;;;;;;;5075370;28;20955;-55
2022/08/05 06:30:09;;;;;;;8.93;8.03;;;;;;;;;;5089292;28;20512;-54
2022/08/05 06:32:35;;;;;;;8.13;7.43;;;;;;;;;;5092506;28;20531;-55
2022/08/05 06:35:08;;;;;;;9.17;8.27;;;;;;;;;;5084375;28;20213;-55
2022/08/05 06:37:34;;;;;;;8.87;8.03;;;;;;;;;;5092169;28;20232;-53
2022/08/05 06:40:00;;;;;;;7.93;7.13;;;;;;;;;;5080015;28;20176;-54
2022/08/05 06:42:26;;;;;;;8.43;7.17;;;;;;;;;;5089495;28;20613;-53
2022/08/05 06:44:52;;;;;;;9.43;6.70;;;;;;;;;;5080197;28;20653;-53
2022/08/05 06:47:18;;;;;;;6.67;6.07;;;;;;;;;;5091062;28;20267;-53
2022/08/05 06:49:44;;;;;;;7.20;6.60;;;;;;;;;;5064425;28;20578;-54
2022/08/05 06:52:13;;;;;;;7.43;6.47;;;;;;;;;;5063661;28;20180;-53
2022/08/05 06:54:39;;;;;;;6.40;5.50;;;;;;;;;;5084246;28;20161;-54
2022/08/05 06:57:05;;;;;;;6.27;5.67;;;;;;;;;;5087201;28;20172;-54
2022/08/05 06:59:32;;;;;;;6.00;5.40;;;;;;;;;;5074908;28;20212;-54
2022/08/05 07:01:58;;;;;;;5.40;5.00;;;;;;;;;;5076258;28;20596;-54
2022/08/05 07:04:24;;;;;;;4.70;4.30;;;;;;;;;;5083537;28;20566;-53
2022/08/05 07:06:50;;;;;;;6.03;4.63;;;;;;;;;;5063674;28;20238;-53
2022/08/05 07:09:16;;;;;;;6.43;4.70;;;;;;;;;;5091975;28;20719;-53
2022/08/05 07:11:42;;;;;;;6.47;5.03;;;;;;;;;;5082418;28;20173;-54
2022/08/05 07:16:58;;;;;;;5.87;3.63;;;;;;;;;;5091289;28;20275;-54
2022/08/05 07:19:24;;;;;;;4.63;3.97;;;;;;;;;;5081395;28;20704;-54
2022/08/05 07:21:51;;;;;;;6.17;4.30;;;;;;;;;;5087646;28;20210;-54
2022/08/05 07:24:17;;;;;;;9.17;4.37;;;;;;;;;;5082050;28;20682;-53
2022/08/05 07:26:44;;;;;;;4.37;3.97;;;;;;;;;;5071562;28;20197;-53
2022/08/05 07:29:10;;;;;;;5.60;3.90;;;;;;;;;;5091915;28;20218;-54
2022/08/05 07:31:36;;;;;;;4.23;3.40;;;;;;;;;;5087454;28;20184;-54
2022/08/05 07:34:03;;;;;;;4.30;3.50;;;;;;;;;;5087005;28;20885;-54
2022/08/05 07:36:29;;;;;;;7.70;3.43;;;;;;;;;;5092506;28;20685;-53
2022/08/05 07:38:56;;;;;;;3.93;3.37;;;;;;;;;;5062495;28;20172;-54
2022/08/05 07:41:23;;;;;;;4.47;3.43;;;;;;;;;;5078824;28;20191;-53
2022/08/05 07:43:50;;;;;;;4.40;3.87;;;;;;;;;;5072682;28;20229;-55
2022/08/05 07:46:16;;;;;;;4.30;3.13;;;;;;;;;;5084146;28;20207;-53
2022/08/05 07:48:42;;;;;;;4.53;3.37;;;;;;;;;;5081352;28;20172;-53
2022/08/05 07:51:08;;;;;;;4.90;3.87;;;;;;;;;;5088965;28;20271;-54
2022/08/05 07:53:35;;;;;;;3.63;3.30;;;;;;;;;;5084123;28;20168;-53
2022/08/05 07:56:02;;;;;;;4.57;3.70;;;;;;;;;;5079670;28;20541;-54
2022/08/05 07:58:28;;;;;;;6.10;3.07;;;;;;;;;;5092086;28;20591;-55
2022/08/05 08:00:54;;;;;;;4.30;2.90;;;;;;;;;;5081440;28;20632;-54
2022/08/05 08:03:20;;;;;;;5.63;3.97;;;;;;;;;;5085178;28;20229;-55
2022/08/05 08:05:49;;;;;;;4.27;3.07;;;;;;;;;;5073417;28;20595;-56
2022/08/05 08:08:16;;;;;;;5.13;3.30;;;;;;;;;;5084603;28;20624;-54
2022/08/05 08:10:42;;;;;;;4.87;3.07;;;;;;;;;;5101613;28;20263;-54
2022/08/05 08:13:08;;;;;;;3.60;3.17;;;;;;;;;;5068270;28;20176;-56
2022/08/05 08:15:34;;;;;;;3.97;3.50;;;;;;;;;;5083840;28;20794;-53
2022/08/05 08:18:01;;;;;;;3.87;3.47;;;;;;;;;;5085193;28;20655;-54
2022/08/05 08:20:27;;;;;;;5.07;3.40;;;;;;;;;;5083435;28;20798;-53
2022/08/05 08:22:54;;;;;;;4.83;3.60;;;;;;;;;;5089324;28;20556;-54
2022/08/05 08:25:20;;;;;;;3.27;3.00;;;;;;;;;;5085246;28;20176;-54
2022/08/05 08:27:47;;;;;;;3.53;2.77;;;;;;;;;;5086001;28;20203;-54
2022/08/05 08:30:13;;;;;;;3.10;2.80;;;;;;;;;;5076165;28;20374;-53
2022/08/05 08:32:40;;;;;;;4.23;3.00;;;;;;;;;;5087847;28;20172;-55
2022/08/05 08:35:06;;;;;;;3.43;3.10;;;;;;;;;;5092723;27;20696;-52
2022/08/05 08:37:33;;;;;;;4.57;2.97;;;;;;;;;;5090096;28;20648;-53
2022/08/05 08:39:59;;;;;;;3.77;3.30;;;;;;;;;;5080753;28;20190;-56
2022/08/05 08:42:25;;;;;;;3.97;2.77;;;;;;;;;;5096309;28;20661;-55
2022/08/05 08:44:53;;;;;;;3.23;2.93;;;;;;;;;;5078229;28;20271;-54
2022/08/05 08:47:22;;;;;;;2.73;2.53;;;;;;;;;;5069829;28;20311;-54
2022/08/05 08:49:51;;;;;;;2.47;2.30;;;;;;;;;;5086430;28;20188;-53
2022/08/05 08:52:19;;;;;;;4.90;3.13;;;;;;;;;;5093410;28;20183;-54
2022/08/05 08:54:46;;;;;;;3.33;2.90;;;;;;;;;;5086481;28;20218;-54
2022/08/05 08:57:12;;;;;;;3.53;3.17;;;;;;;;;;5086750;28;20592;-54
2022/08/05 08:59:39;;;;;;;3.30;3.00;;;;;;;;;;5089991;28;20184;-54
2022/08/05 09:02:06;;;;;;;4.20;3.13;;;;;;;;;;5089324;28;20273;-53
2022/08/05 09:04:41;;;;;;;7.03;3.33;;;;;;;;;;5085676;28;20652;-53
2022/08/05 09:07:07;;;;;;;4.30;3.03;;;;;;;;;;5088244;28;20201;-54
2022/08/05 09:09:35;;;;;;;5.37;3.10;;;;;;;;;;5087856;28;20170;-53
2022/08/05 09:12:01;;;;;;;3.20;2.90;;;;;;;;;;5086395;28;20174;-54
2022/08/05 09:14:27;;;;;;;3.63;3.33;;;;;;;;;;5066022;28;20185;-54
2022/08/05 09:16:54;;;;;;;3.30;2.80;;;;;;;;;;5067964;28;20556;-54
2022/08/05 09:19:20;;;;;;;4.17;3.50;;;;;;;;;;5072126;28;20317;-54
2022/08/05 09:21:46;;;;;;;3.67;3.20;;;;;;;;;;5089155;28;20166;-53
2022/08/05 09:24:12;;;;;;;3.77;3.03;;;;;;;;;;5083903;28;20651;-54
2022/08/05 09:26:39;;;;;;;3.27;2.97;;;;;;;;;;5087367;28;20223;-54
2022/08/05 09:29:06;;;;;;;3.63;2.80;;;;;;;;;;5078492;28;20612;-54
2022/08/05 09:31:33;;;;;;;3.17;2.87;;;;;;;;;;5083830;28;20366;-54
2022/08/05 09:34:01;;;;;;;3.37;3.13;;;;;;;;;;5082127;28;20217;-54
2022/08/05 09:36:44;;;;;;;4.20;2.77;;;;;;;;;;5069001;28;20718;-54
2022/08/05 09:39:11;;;;;;;3.97;3.43;;;;;;;;;;5078214;28;20185;-54
2022/08/05 09:41:57;;;;;;;4.47;2.90;;;;;;;;;;5073559;28;20214;-54
2022/08/05 09:44:36;;;;;;;3.20;2.87;;;;;;;;;;5064972;28;20212;-54
2022/08/05 09:47:13;;;;;;;3.60;3.20;;;;;;;;;;5068467;28;20658;-54
2022/08/05 09:49:40;;;;;;;4.53;3.03;;;;;;;;;;5083614;28;20266;-54
2022/08/05 09:52:25;;;;;;;3.20;3.00;;;;;;;;;;5087410;28;20178;-54
2022/08/05 09:54:57;;;;;;;4.03;3.00;;;;;;;;;;5087194;28;20203;-55
2022/08/05 09:57:29;;;;;;;6.87;3.57;;;;;;;;;;5068008;28;20179;-53
2022/08/05 10:00:15;;;;;;;3.87;2.90;;;;;;;;;;5066777;28;20193;-55
2022/08/05 10:02:46;;;;;;;3.37;3.07;;;;;;;;;;5068592;28;20166;-54
2022/08/05 10:05:13;;;;;;;3.53;3.17;;;;;;;;;;5083293;28;20654;-54
2022/08/05 10:07:43;;;;;;;6.80;3.93;;;;;;;;;;5086982;28;20681;-55
2022/08/05 10:10:09;;;;;;;4.67;3.73;;;;;;;;;;5086896;28;20219;-56
2022/08/05 10:12:46;;;;;;;3.83;3.37;;;;;;;;;;5080620;28;20194;-54
2022/08/05 10:15:15;;;;;;;5.27;3.37;;;;;;;;;;5055594;28;20188;-54
2022/08/05 10:17:42;;;;;;;5.70;3.60;;;;;;;;;;5086036;28;20273;-55
2022/08/05 10:20:11;;;;;;;3.27;2.97;;;;;;;;;;5099908;28;20616;-55
2022/08/05 10:22:39;;;;;;;5.13;4.63;;;;;;;;;;5089351;28;20177;-56
2022/08/05 10:25:05;;;;;;;4.50;3.37;;;;;;;;;;5080994;28;20174;-53
2022/08/05 10:27:31;;;;;;;4.30;3.70;;;;;;;;;;5074760;28;20193;-53
2022/08/05 10:29:58;;;;;;;4.03;3.63;;;;;;;;;;5085269;28;20178;-54
2022/08/05 10:32:24;;;;;;;4.13;3.20;;;;;;;;;;5082933;28;20179;-55
2022/08/05 10:34:50;;;;;;;4.80;3.20;;;;;;;;;;5102128;28;20285;-55
2022/08/05 10:37:17;;;;;;;5.10;3.53;;;;;;;;;;5093494;28;20223;-54
2022/08/05 10:39:45;;;;;;;4.40;4.00;;;;;;;;;;5095828;28;20230;-54
2022/08/05 10:42:21;;;;;;;3.63;3.33;;;;;;;;;;5087961;28;20873;-54
2022/08/05 10:44:48;;;;;;;9.63;4.00;;;;;;;;;;5066122;28;20178;-55
2022/08/05 10:47:15;;;;;;;5.07;4.57;;;;;;;;;;5086617;28;20204;-55
2022/08/05 10:50:15;;;;;;;4.37;3.97;;;;;;;;;;5069076;28;20210;-55
2022/08/05 10:52:42;;;;;;;4.67;4.20;;;;;;;;;;5057718;28;20192;-55
2022/08/05 10:55:09;;;;;;;8.33;5.30;;;;;;;;;;5073430;28;20180;-55
2022/08/05 10:57:38;;;;;;;8.30;6.23;;;;;;;;;;5063545;28;20642;-55
2022/08/05 11:00:11;;;;;;;8.70;6.00;;;;;;;;;;5071163;28;20169;-54
2022/08/05 11:02:41;;;;;;;6.70;4.60;;;;;;;;;;5077446;28;20191;-57
2022/08/05 11:05:09;;;;;;;5.53;5.03;;;;;;;;;;5068282;28;20192;-55
2022/08/05 11:07:55;;;;;;;4.73;4.33;;;;;;;;;;5064499;28;20207;-56
2022/08/05 11:10:25;;;;;;;4.90;4.30;;;;;;;;;;5070756;28;20180;-57
2022/08/05 11:12:58;;;;;;;5.50;3.80;;;;;;;;;;5065730;28;20188;-57
2022/08/05 11:15:27;;;;;;;5.10;3.67;;;;;;;;;;5088668;28;20188;-55
2022/08/05 11:17:54;;;;;;;3.20;3.00;;;;;;;;;;5089672;28;20176;-54
2022/08/05 11:20:37;;;;;;;3.73;3.37;;;;;;;;;;5089228;28;20859;-56
2022/08/05 11:23:36;;;;;;;3.10;2.80;;;;;;;;;;5081829;28;20176;-55
2022/08/05 11:26:06;;;;;;;4.23;3.23;;;;;;;;;;5044401;28;20226;-56
2022/08/05 11:28:32;;;;;;;4.17;3.77;;;;;;;;;;5085161;28;20652;-54
2022/08/05 11:31:01;;;;;;;4.53;3.40;;;;;;;;;;5071691;28;20211;-56
2022/08/05 11:33:28;;;;;;;3.90;3.57;;;;;;;;;;5060114;28;20692;-55
2022/08/05 11:36:02;;;;;;;5.20;3.60;;;;;;;;;;5071815;28;20555;-57
2022/08/05 11:38:40;;;;;;;5.37;4.10;;;;;;;;;;5070354;28;20212;-54
2022/08/05 11:41:08;;;;;;;8.17;4.23;;;;;;;;;;5093175;28;20593;-56
2022/08/05 11:43:34;;;;;;;8.50;5.37;;;;;;;;;;5089791;28;20171;-55
2022/08/05 11:46:01;;;;;;;4.57;4.17;;;;;;;;;;5086086;28;21525;-55
2022/08/05 11:48:28;;;;;;;5.33;4.30;;;;;;;;;;5083376;28;20652;-53
2022/08/05 11:50:54;;;;;;;5.03;4.57;;;;;;;;;;5069751;28;20161;-55
2022/08/05 11:53:22;;;;;;;5.00;4.57;;;;;;;;;;5083337;28;20184;-57
2022/08/05 11:55:54;;;;;;;5.13;4.67;;;;;;;;;;5080187;28;20546;-55
2022/08/05 11:58:30;;;;;;;4.83;4.37;;;;;;;;;;5084078;28;20220;-55
2022/08/05 12:01:13;;;;;;;3.87;3.57;;;;;;;;;;5065150;28;20733;-55
2022/08/05 12:03:42;;;;;;;4.60;4.30;;;;;;;;;;5080431;28;20250;-54
2022/08/05 12:06:09;;;;;;;6.63;4.70;;;;;;;;;;5090022;28;20168;-54
2022/08/05 12:08:39;;;;;;;5.57;5.07;;;;;;;;;;5073871;28;20175;-56
2022/08/05 12:11:14;;;;;;;5.23;4.83;;;;;;;;;;5110025;28;20282;-55
2022/08/05 12:13:40;;;;;;;5.07;4.60;;;;;;;;;;5093619;28;20172;-54
2022/08/05 12:16:09;;;;;;;6.50;4.53;;;;;;;;;;5071062;28;20176;-54
2022/08/05 12:18:36;;;;;;;7.13;4.67;;;;;;;;;;5075542;28;20177;-54
2022/08/05 12:21:09;;;;;;;7.77;5.20;;;;;;;;;;5057508;28;20220;-54
2022/08/05 12:23:35;;;;;;;5.50;5.00;;;;;;;;;;5066844;28;20172;-54
2022/08/05 12:26:01;;;;;;;5.83;4.20;;;;;;;;;;5110079;28;20524;-54
2022/08/05 12:28:34;;;;;;;5.00;4.60;;;;;;;;;;5079607;28;20718;-56
2022/08/05 12:31:01;;;;;;;5.70;5.20;;;;;;;;;;5103535;28;20507;-54
2022/08/05 12:33:27;;;;;;;4.67;4.07;;;;;;;;;;5099050;28;20966;-53
2022/08/05 12:35:54;;;;;;;5.43;5.03;;;;;;;;;;5045349;28;20747;-53
2022/08/05 12:38:21;;;;;;;4.30;3.90;;;;;;;;;;5060043;28;20534;-54
2022/08/05 12:40:48;;;;;;;4.90;4.00;;;;;;;;;;5080369;28;20784;-54
2022/08/05 12:43:14;;;;;;;4.80;4.30;;;;;;;;;;5076292;28;20663;-53
2022/08/05 12:45:53;;;;;;;4.83;4.37;;;;;;;;;;5068224;28;20164;-53
2022/08/05 12:48:19;;;;;;;4.57;4.13;;;;;;;;;;5056590;28;20838;-54
2022/08/05 12:51:05;;;;;;;4.57;4.20;;;;;;;;;;5066256;28;20176;-53
2022/08/05 12:53:31;;;;;;;5.53;3.60;;;;;;;;;;5063634;28;20913;-56
2022/08/05 12:55:57;;;;;;;4.33;3.60;;;;;;;;;;5057609;28;20273;-54
2022/08/05 12:58:24;;;;;;;4.13;3.83;;;;;;;;;;5042437;28;20186;-54
2022/08/05 13:00:50;;;;;;;8.13;4.10;;;;;;;;;;5047823;28;20172;-54
2022/08/05 13:03:16;;;;;;;4.37;3.20;;;;;;;;;;5065760;28;20181;-53
2022/08/05 13:05:42;;;;;;;4.30;3.70;;;;;;;;;;5067572;28;20696;-54
2022/08/05 13:08:08;;;;;;;5.70;4.30;;;;;;;;;;5067533;28;20299;-54
2022/08/05 13:10:42;;;;;;;4.17;3.77;;;;;;;;;;5068371;28;20176;-57
2022/08/05 13:13:09;;;;;;;3.23;2.97;;;;;;;;;;5048127;28;20194;-56
2022/08/05 13:15:35;;;;;;;5.37;4.27;;;;;;;;;;5074671;28;20176;-54
2022/08/05 13:18:01;;;;;;;2.93;2.73;;;;;;;;;;5068091;28;20181;-55
2022/08/05 13:20:34;;;;;;;4.97;2.97;;;;;;;;;;5072066;28;20209;-54
2022/08/05 13:23:00;;;;;;;2.70;2.50;;;;;;;;;;5048704;28;20174;-53
2022/08/05 13:25:27;;;;;;;5.17;2.47;;;;;;;;;;5077046;28;20176;-54
2022/08/05 13:27:56;;;;;;;5.30;3.10;;;;;;;;;;5079204;28;20588;-55
2022/08/05 13:30:24;;;;;;;4.27;2.43;;;;;;;;;;5068340;28;20570;-53
2022/08/05 13:32:51;;;;;;;4.10;2.70;;;;;;;;;;5060806;28;20184;-54
2022/08/05 13:35:19;;;;;;;2.53;2.33;;;;;;;;;;5031917;28;20508;-55
2022/08/05 13:37:45;;;;;;;2.97;2.60;;;;;;;;;;5078222;28;20740;-53
2022/08/05 13:40:11;;;;;;;3.90;2.53;;;;;;;;;;5075732;28;20180;-54
2022/08/05 13:42:38;;;;;;;3.73;2.07;;;;;;;;;;5095503;28;20183;-55
2022/08/05 13:45:06;;;;;;;3.67;2.33;;;;;;;;;;5087371;28;20191;-52
2022/08/05 13:47:39;;;;;;;2.93;2.23;;;;;;;;;;5083976;28;20219;-53
2022/08/05 13:50:06;;;;;;;2.40;2.20;;;;;;;;;;5063961;28;20579;-53
2022/08/05 13:52:32;;;;;;;4.50;2.80;;;;;;;;;;5083979;28;20530;-53
2022/08/05 13:54:58;;;;;;;3.17;2.67;;;;;;;;;;5082093;28;20587;-53
2022/08/05 13:57:24;;;;;;;3.67;3.37;;;;;;;;;;5097071;28;20176;-54
2022/08/05 13:59:50;;;;;;;5.70;5.40;;;;;;;;;;5086498;28;20173;-53
2022/08/05 14:02:17;;;;;;;4.50;4.13;;;;;;;;;;5092509;28;20186;-53
2022/08/05 14:07:34;;;;;;;2.97;2.30;;;;;;;;;;5088200;28;20230;-53
2022/08/05 14:10:00;;;;;;;3.23;2.30;;;;;;;;;;5085816;28;20229;-53
2022/08/05 14:12:27;;;;;;;4.53;2.57;;;;;;;;;;5065933;28;20172;-53
2022/08/05 14:14:53;;;;;;;4.53;2.30;;;;;;;;;;5079494;28;20183;-55
2022/08/05 14:17:22;;;;;;;2.53;2.33;;;;;;;;;;5087616;28;20638;-54
2022/08/05 14:19:48;;;;;;;2.83;2.33;;;;;;;;;;5089195;28;20572;-53
2022/08/05 14:22:15;;;;;;;4.50;4.20;;;;;;;;;;5084345;28;20274;-53
2022/08/05 14:24:41;;;;;;;2.10;2.00;;;;;;;;;;5085636;28;20183;-53
2022/08/05 14:27:07;;;;;;;2.73;2.10;;;;;;;;;;5086940;28;20203;-53
2022/08/05 14:29:33;;;;;;;2.63;1.90;;;;;;;;;;5087488;28;20234;-55
2022/08/05 14:31:59;;;;;;;3.10;2.13;;;;;;;;;;5102572;28;20171;-53
2022/08/05 14:34:25;;;;;;;2.47;2.20;;;;;;;;;;5092178;28;20187;-54
2022/08/05 14:36:51;;;;;;;2.50;2.30;;;;;;;;;;5089009;28;20223;-54
2022/08/05 14:39:17;;;;;;;5.93;2.23;;;;;;;;;;5071973;28;20213;-54
2022/08/05 14:41:44;;;;;;;3.40;2.57;;;;;;;;;;5087975;28;20215;-54
2022/08/05 14:44:10;;;;;;;2.20;2.10;;;;;;;;;;5087162;28;20655;-55
2022/08/05 14:46:36;;;;;;;3.53;2.07;;;;;;;;;;5090329;28;20668;-54
2022/08/05 14:49:03;;;;;;;2.27;2.07;;;;;;;;;;5069835;28;20200;-53
2022/08/05 14:51:30;;;;;;;3.20;2.17;;;;;;;;;;5087087;28;20254;-54
2022/08/05 14:53:56;;;;;;;3.07;2.73;;;;;;;;;;5085602;28;20176;-54